sensor_id;sensor_type;location;lat;lon;timestamp;P1;durP1;ratioP1;P2;durP2;ratioP2
45564;SDS011;31280;40.408;17.282;2022-11-20T00:01:05;20.85;;;3.83;;
45564;SDS011;31280;40.408;17.282;2022-11-20T00:03:31;12.70;;;3.30;;
45564;SDS011;31280;40.408;17.282;2022-11-20T00:06:01;16.42;;;3.65;;
45564;SDS011;31280;40.408;17.282;2022-11-20T00:08:27;12.35;;;3.17;;
45564;SDS011;31280;40.408;17.282;2022-11-20T00:10:53;18.55;;;3.60;;
45564;SDS011;31280;40.408;17.282;2022-11-20T00:13:19;18.20;;;3.70;;
45564;SDS011;31280;40.408;17.282;2022-11-20T00:15:45;13.52;;;3.47;;
45564;SDS011;31280;40.408;17.282;2022-11-20T00:18:10;23.63;;;4.07;;
45564;SDS011;31280;40.408;17.282;2022-11-20T00:20:36;17.73;;;3.38;;
45564;SDS011;31280;40.408;17.282;2022-11-20T00:23:02;19.48;;;3.50;;
45564;SDS011;31280;40.408;17.282;2022-11-20T00:25:28;14.23;;;3.45;;
45564;SDS011;31280;40.408;17.282;2022-11-20T00:27:54;16.80;;;4.00;;
45564;SDS011;31280;40.408;17.282;2022-11-20T00:30:19;17.75;;;4.07;;
45564;SDS011;31280;40.408;17.282;2022-11-20T00:32:45;22.05;;;3.20;;
45564;SDS011;31280;40.408;17.282;2022-11-20T00:35:10;13.77;;;3.20;;
45564;SDS011;31280;40.408;17.282;2022-11-20T00:37:36;16.98;;;3.38;;
45564;SDS011;31280;40.408;17.282;2022-11-20T00:40:02;23.73;;;5.05;;
45564;SDS011;31280;40.408;17.282;2022-11-20T00:42:27;28.35;;;3.83;;
45564;SDS011;31280;40.408;17.282;2022-11-20T00:44:53;18.40;;;3.67;;
45564;SDS011;31280;40.408;17.282;2022-11-20T00:47:19;11.52;;;2.08;;
45564;SDS011;31280;40.408;17.282;2022-11-20T00:49:44;10.70;;;2.28;;
45564;SDS011;31280;40.408;17.282;2022-11-20T00:52:10;12.55;;;2.45;;
45564;SDS011;31280;40.408;17.282;2022-11-20T00:54:36;10.07;;;2.20;;
45564;SDS011;31280;40.408;17.282;2022-11-20T00:57:02;10.80;;;1.90;;
45564;SDS011;31280;40.408;17.282;2022-11-20T00:59:28;15.43;;;2.78;;
45564;SDS011;31280;40.408;17.282;2022-11-20T01:01:53;15.70;;;2.33;;
45564;SDS011;31280;40.408;17.282;2022-11-20T01:04:19;21.80;;;2.13;;
45564;SDS011;31280;40.408;17.282;2022-11-20T01:06:44;17.75;;;3.08;;
45564;SDS011;31280;40.408;17.282;2022-11-20T01:09:11;20.58;;;2.55;;
45564;SDS011;31280;40.408;17.282;2022-11-20T01:11:40;15.35;;;2.50;;
45564;SDS011;31280;40.408;17.282;2022-11-20T01:14:10;18.58;;;2.47;;
45564;SDS011;31280;40.408;17.282;2022-11-20T01:16:38;12.85;;;2.58;;
45564;SDS011;31280;40.408;17.282;2022-11-20T01:19:09;17.55;;;2.45;;
45564;SDS011;31280;40.408;17.282;2022-11-20T01:21:38;14.98;;;3.20;;
45564;SDS011;31280;40.408;17.282;2022-11-20T01:24:06;10.90;;;2.25;;
45564;SDS011;31280;40.408;17.282;2022-11-20T01:26:35;15.32;;;2.72;;
45564;SDS011;31280;40.408;17.282;2022-11-20T01:29:03;17.73;;;2.60;;
45564;SDS011;31280;40.408;17.282;2022-11-20T01:31:31;27.05;;;3.28;;
45564;SDS011;31280;40.408;17.282;2022-11-20T01:34:04;13.13;;;2.85;;
45564;SDS011;31280;40.408;17.282;2022-11-20T01:36:31;14.23;;;2.33;;
45564;SDS011;31280;40.408;17.282;2022-11-20T01:39:00;16.38;;;2.60;;
45564;SDS011;31280;40.408;17.282;2022-11-20T01:41:30;15.43;;;2.88;;
45564;SDS011;31280;40.408;17.282;2022-11-20T01:44:19;16.55;;;2.65;;
45564;SDS011;31280;40.408;17.282;2022-11-20T01:47:03;16.98;;;3.78;;
45564;SDS011;31280;40.408;17.282;2022-11-20T01:54:44;22.90;;;4.03;;
45564;SDS011;31280;40.408;17.282;2022-11-20T01:57:14;13.15;;;2.42;;
45564;SDS011;31280;40.408;17.282;2022-11-20T01:59:44;15.35;;;2.70;;
45564;SDS011;31280;40.408;17.282;2022-11-20T02:02:12;11.32;;;2.45;;
45564;SDS011;31280;40.408;17.282;2022-11-20T02:04:38;15.80;;;2.95;;
45564;SDS011;31280;40.408;17.282;2022-11-20T02:07:04;14.05;;;2.42;;
45564;SDS011;31280;40.408;17.282;2022-11-20T02:09:30;14.70;;;3.60;;
45564;SDS011;31280;40.408;17.282;2022-11-20T02:11:56;19.65;;;2.83;;
45564;SDS011;31280;40.408;17.282;2022-11-20T02:14:23;20.10;;;2.85;;
45564;SDS011;31280;40.408;17.282;2022-11-20T02:16:50;18.17;;;2.75;;
45564;SDS011;31280;40.408;17.282;2022-11-20T02:24:30;18.13;;;3.72;;
45564;SDS011;31280;40.408;17.282;2022-11-20T02:27:29;12.02;;;2.60;;
45564;SDS011;31280;40.408;17.282;2022-11-20T02:29:56;16.02;;;2.20;;
45564;SDS011;31280;40.408;17.282;2022-11-20T02:32:28;12.27;;;2.30;;
45564;SDS011;31280;40.408;17.282;2022-11-20T02:34:57;13.53;;;2.33;;
45564;SDS011;31280;40.408;17.282;2022-11-20T02:37:23;15.77;;;2.60;;
45564;SDS011;31280;40.408;17.282;2022-11-20T02:39:55;13.65;;;2.40;;
45564;SDS011;31280;40.408;17.282;2022-11-20T02:42:21;24.15;;;3.92;;
45564;SDS011;31280;40.408;17.282;2022-11-20T02:44:47;15.15;;;1.98;;
45564;SDS011;31280;40.408;17.282;2022-11-20T02:47:13;18.67;;;2.63;;
45564;SDS011;31280;40.408;17.282;2022-11-20T02:49:39;18.33;;;2.45;;
45564;SDS011;31280;40.408;17.282;2022-11-20T02:52:04;14.70;;;2.30;;
45564;SDS011;31280;40.408;17.282;2022-11-20T02:54:30;15.85;;;2.33;;
45564;SDS011;31280;40.408;17.282;2022-11-20T02:56:56;15.65;;;2.45;;
45564;SDS011;31280;40.408;17.282;2022-11-20T02:59:21;15.20;;;2.30;;
45564;SDS011;31280;40.408;17.282;2022-11-20T03:01:47;12.82;;;2.45;;
45564;SDS011;31280;40.408;17.282;2022-11-20T03:04:13;15.43;;;2.30;;
45564;SDS011;31280;40.408;17.282;2022-11-20T03:06:38;10.27;;;2.30;;
45564;SDS011;31280;40.408;17.282;2022-11-20T03:09:04;11.38;;;2.20;;
45564;SDS011;31280;40.408;17.282;2022-11-20T03:11:29;16.00;;;2.78;;
45564;SDS011;31280;40.408;17.282;2022-11-20T03:13:55;13.05;;;2.50;;
45564;SDS011;31280;40.408;17.282;2022-11-20T03:16:21;9.48;;;2.42;;
45564;SDS011;31280;40.408;17.282;2022-11-20T03:18:48;20.63;;;2.78;;
45564;SDS011;31280;40.408;17.282;2022-11-20T03:21:17;19.55;;;2.53;;
45564;SDS011;31280;40.408;17.282;2022-11-20T03:23:42;15.85;;;2.58;;
45564;SDS011;31280;40.408;17.282;2022-11-20T03:26:09;15.63;;;2.45;;
45564;SDS011;31280;40.408;17.282;2022-11-20T03:28:36;13.98;;;3.33;;
45564;SDS011;31280;40.408;17.282;2022-11-20T03:31:10;14.00;;;2.65;;
45564;SDS011;31280;40.408;17.282;2022-11-20T03:33:39;12.00;;;1.92;;
45564;SDS011;31280;40.408;17.282;2022-11-20T03:36:10;16.63;;;2.88;;
45564;SDS011;31280;40.408;17.282;2022-11-20T03:38:39;12.53;;;2.47;;
45564;SDS011;31280;40.408;17.282;2022-11-20T03:41:06;15.95;;;3.15;;
45564;SDS011;31280;40.408;17.282;2022-11-20T03:43:34;13.93;;;2.88;;
45564;SDS011;31280;40.408;17.282;2022-11-20T03:46:01;10.90;;;1.83;;
45564;SDS011;31280;40.408;17.282;2022-11-20T03:48:27;15.15;;;3.00;;
45564;SDS011;31280;40.408;17.282;2022-11-20T03:50:54;16.08;;;2.05;;
45564;SDS011;31280;40.408;17.282;2022-11-20T03:53:32;14.32;;;2.20;;
45564;SDS011;31280;40.408;17.282;2022-11-20T03:56:00;12.65;;;2.00;;
45564;SDS011;31280;40.408;17.282;2022-11-20T03:58:26;16.30;;;2.20;;
45564;SDS011;31280;40.408;17.282;2022-11-20T04:00:52;11.75;;;2.33;;
45564;SDS011;31280;40.408;17.282;2022-11-20T04:03:17;15.75;;;2.72;;
45564;SDS011;31280;40.408;17.282;2022-11-20T04:05:43;15.75;;;1.95;;
45564;SDS011;31280;40.408;17.282;2022-11-20T04:08:09;14.88;;;2.75;;
45564;SDS011;31280;40.408;17.282;2022-11-20T04:10:34;13.90;;;2.65;;
45564;SDS011;31280;40.408;17.282;2022-11-20T04:13:00;22.23;;;2.35;;
45564;SDS011;31280;40.408;17.282;2022-11-20T04:15:26;14.75;;;2.92;;
45564;SDS011;31280;40.408;17.282;2022-11-20T04:17:51;9.82;;;1.80;;
45564;SDS011;31280;40.408;17.282;2022-11-20T04:20:17;15.73;;;2.58;;
45564;SDS011;31280;40.408;17.282;2022-11-20T04:22:43;12.30;;;2.15;;
45564;SDS011;31280;40.408;17.282;2022-11-20T04:25:08;10.13;;;2.47;;
45564;SDS011;31280;40.408;17.282;2022-11-20T04:27:34;14.00;;;2.85;;
45564;SDS011;31280;40.408;17.282;2022-11-20T04:29:59;13.00;;;3.17;;
45564;SDS011;31280;40.408;17.282;2022-11-20T04:32:25;11.05;;;2.47;;
45564;SDS011;31280;40.408;17.282;2022-11-20T04:34:51;14.13;;;2.30;;
45564;SDS011;31280;40.408;17.282;2022-11-20T04:37:17;15.10;;;1.95;;
45564;SDS011;31280;40.408;17.282;2022-11-20T04:39:43;18.05;;;1.95;;
45564;SDS011;31280;40.408;17.282;2022-11-20T04:42:09;11.50;;;2.33;;
45564;SDS011;31280;40.408;17.282;2022-11-20T04:44:54;13.77;;;2.03;;
45564;SDS011;31280;40.408;17.282;2022-11-20T04:47:20;10.98;;;2.05;;
45564;SDS011;31280;40.408;17.282;2022-11-20T04:49:46;21.02;;;3.25;;
45564;SDS011;31280;40.408;17.282;2022-11-20T04:52:11;10.82;;;1.88;;
45564;SDS011;31280;40.408;17.282;2022-11-20T04:54:38;9.77;;;2.42;;
45564;SDS011;31280;40.408;17.282;2022-11-20T04:57:03;10.30;;;1.50;;
45564;SDS011;31280;40.408;17.282;2022-11-20T04:59:29;11.85;;;1.58;;
45564;SDS011;31280;40.408;17.282;2022-11-20T05:01:55;9.20;;;1.83;;
45564;SDS011;31280;40.408;17.282;2022-11-20T05:04:21;23.48;;;2.40;;
45564;SDS011;31280;40.408;17.282;2022-11-20T05:06:47;10.82;;;1.80;;
45564;SDS011;31280;40.408;17.282;2022-11-20T05:09:13;7.32;;;2.08;;
45564;SDS011;31280;40.408;17.282;2022-11-20T05:11:38;16.00;;;2.47;;
45564;SDS011;31280;40.408;17.282;2022-11-20T05:14:04;9.52;;;1.95;;
45564;SDS011;31280;40.408;17.282;2022-11-20T05:16:30;8.85;;;1.88;;
45564;SDS011;31280;40.408;17.282;2022-11-20T05:18:56;8.65;;;2.22;;
45564;SDS011;31280;40.408;17.282;2022-11-20T05:21:23;8.32;;;1.48;;
45564;SDS011;31280;40.408;17.282;2022-11-20T05:23:48;10.13;;;1.98;;
45564;SDS011;31280;40.408;17.282;2022-11-20T05:26:17;11.55;;;1.92;;
45564;SDS011;31280;40.408;17.282;2022-11-20T05:28:44;10.00;;;1.55;;
45564;SDS011;31280;40.408;17.282;2022-11-20T05:31:13;10.75;;;1.77;;
45564;SDS011;31280;40.408;17.282;2022-11-20T05:33:41;6.22;;;1.38;;
45564;SDS011;31280;40.408;17.282;2022-11-20T05:36:08;15.43;;;1.65;;
45564;SDS011;31280;40.408;17.282;2022-11-20T05:38:34;20.80;;;1.88;;
45564;SDS011;31280;40.408;17.282;2022-11-20T05:41:04;11.48;;;2.28;;
45564;SDS011;31280;40.408;17.282;2022-11-20T05:43:38;7.45;;;1.98;;
45564;SDS011;31280;40.408;17.282;2022-11-20T05:46:05;11.88;;;2.40;;
45564;SDS011;31280;40.408;17.282;2022-11-20T05:48:32;10.75;;;1.98;;
45564;SDS011;31280;40.408;17.282;2022-11-20T05:50:59;7.70;;;1.33;;
45564;SDS011;31280;40.408;17.282;2022-11-20T05:53:26;10.15;;;1.73;;
45564;SDS011;31280;40.408;17.282;2022-11-20T05:55:59;15.43;;;2.35;;
45564;SDS011;31280;40.408;17.282;2022-11-20T05:58:30;10.95;;;1.45;;
45564;SDS011;31280;40.408;17.282;2022-11-20T06:01:05;5.75;;;2.20;;
45564;SDS011;31280;40.408;17.282;2022-11-20T06:03:42;5.97;;;1.85;;
45564;SDS011;31280;40.408;17.282;2022-11-20T06:06:11;9.10;;;1.60;;
45564;SDS011;31280;40.408;17.282;2022-11-20T06:08:37;11.82;;;1.80;;
45564;SDS011;31280;40.408;17.282;2022-11-20T06:11:04;15.23;;;2.20;;
45564;SDS011;31280;40.408;17.282;2022-11-20T06:13:31;5.88;;;1.70;;
45564;SDS011;31280;40.408;17.282;2022-11-20T06:15:57;4.90;;;1.50;;
45564;SDS011;31280;40.408;17.282;2022-11-20T06:18:22;10.07;;;1.73;;
45564;SDS011;31280;40.408;17.282;2022-11-20T06:20:48;10.00;;;1.70;;
45564;SDS011;31280;40.408;17.282;2022-11-20T06:23:14;5.20;;;1.30;;
45564;SDS011;31280;40.408;17.282;2022-11-20T06:25:40;8.68;;;2.33;;
45564;SDS011;31280;40.408;17.282;2022-11-20T06:28:06;5.97;;;1.33;;
45564;SDS011;31280;40.408;17.282;2022-11-20T06:30:32;7.95;;;1.50;;
45564;SDS011;31280;40.408;17.282;2022-11-20T06:32:58;5.45;;;1.50;;
45564;SDS011;31280;40.408;17.282;2022-11-20T06:35:24;7.97;;;1.95;;
45564;SDS011;31280;40.408;17.282;2022-11-20T06:37:50;5.40;;;1.58;;
45564;SDS011;31280;40.408;17.282;2022-11-20T06:40:15;9.45;;;1.80;;
45564;SDS011;31280;40.408;17.282;2022-11-20T06:42:41;4.35;;;1.30;;
45564;SDS011;31280;40.408;17.282;2022-11-20T06:45:07;6.03;;;1.30;;
45564;SDS011;31280;40.408;17.282;2022-11-20T06:47:34;9.68;;;1.75;;
45564;SDS011;31280;40.408;17.282;2022-11-20T06:50:00;11.02;;;1.58;;
45564;SDS011;31280;40.408;17.282;2022-11-20T06:52:25;34.35;;;3.42;;
45564;SDS011;31280;40.408;17.282;2022-11-20T06:54:51;12.10;;;2.05;;
45564;SDS011;31280;40.408;17.282;2022-11-20T06:57:17;27.98;;;2.33;;
45564;SDS011;31280;40.408;17.282;2022-11-20T06:59:43;8.70;;;1.50;;
45564;SDS011;31280;40.408;17.282;2022-11-20T07:02:11;19.85;;;2.10;;
45564;SDS011;31280;40.408;17.282;2022-11-20T07:04:38;8.02;;;1.83;;
45564;SDS011;31280;40.408;17.282;2022-11-20T07:07:04;12.13;;;1.88;;
45564;SDS011;31280;40.408;17.282;2022-11-20T07:09:31;4.20;;;1.30;;
45564;SDS011;31280;40.408;17.282;2022-11-20T07:11:58;6.82;;;1.52;;
45564;SDS011;31280;40.408;17.282;2022-11-20T07:14:24;6.00;;;1.55;;
45564;SDS011;31280;40.408;17.282;2022-11-20T07:16:49;14.02;;;1.58;;
45564;SDS011;31280;40.408;17.282;2022-11-20T07:19:15;6.82;;;1.20;;
45564;SDS011;31280;40.408;17.282;2022-11-20T07:21:40;9.13;;;1.40;;
45564;SDS011;31280;40.408;17.282;2022-11-20T07:24:06;9.15;;;1.05;;
45564;SDS011;31280;40.408;17.282;2022-11-20T07:26:32;5.80;;;1.50;;
45564;SDS011;31280;40.408;17.282;2022-11-20T07:28:57;6.45;;;1.65;;
45564;SDS011;31280;40.408;17.282;2022-11-20T07:31:23;8.50;;;1.45;;
45564;SDS011;31280;40.408;17.282;2022-11-20T07:33:49;7.45;;;1.67;;
45564;SDS011;31280;40.408;17.282;2022-11-20T07:36:15;19.80;;;3.03;;
45564;SDS011;31280;40.408;17.282;2022-11-20T07:38:40;6.57;;;1.83;;
45564;SDS011;31280;40.408;17.282;2022-11-20T07:41:06;11.00;;;2.25;;
45564;SDS011;31280;40.408;17.282;2022-11-20T07:43:32;16.17;;;2.40;;
45564;SDS011;31280;40.408;17.282;2022-11-20T07:45:59;9.90;;;2.22;;
45564;SDS011;31280;40.408;17.282;2022-11-20T07:48:25;5.22;;;1.65;;
45564;SDS011;31280;40.408;17.282;2022-11-20T07:50:54;7.43;;;1.83;;
45564;SDS011;31280;40.408;17.282;2022-11-20T07:53:23;5.82;;;1.58;;
45564;SDS011;31280;40.408;17.282;2022-11-20T07:55:49;5.85;;;1.63;;
45564;SDS011;31280;40.408;17.282;2022-11-20T07:58:17;7.65;;;1.80;;
45564;SDS011;31280;40.408;17.282;2022-11-20T08:00:44;14.02;;;1.85;;
45564;SDS011;31280;40.408;17.282;2022-11-20T08:03:10;7.22;;;1.17;;
45564;SDS011;31280;40.408;17.282;2022-11-20T08:05:35;12.43;;;2.78;;
45564;SDS011;31280;40.408;17.282;2022-11-20T08:08:02;3.75;;;1.40;;
45564;SDS011;31280;40.408;17.282;2022-11-20T08:10:28;5.22;;;1.25;;
45564;SDS011;31280;40.408;17.282;2022-11-20T08:12:54;3.90;;;1.38;;
45564;SDS011;31280;40.408;17.282;2022-11-20T08:15:39;5.95;;;1.30;;
45564;SDS011;31280;40.408;17.282;2022-11-20T08:18:06;6.55;;;1.25;;
45564;SDS011;31280;40.408;17.282;2022-11-20T08:20:34;8.85;;;1.55;;
45564;SDS011;31280;40.408;17.282;2022-11-20T08:23:01;9.45;;;1.85;;
45564;SDS011;31280;40.408;17.282;2022-11-20T08:25:28;5.15;;;1.58;;
45564;SDS011;31280;40.408;17.282;2022-11-20T08:27:58;8.15;;;1.10;;
45564;SDS011;31280;40.408;17.282;2022-11-20T08:30:25;8.45;;;1.25;;
45564;SDS011;31280;40.408;17.282;2022-11-20T08:32:51;5.88;;;0.90;;
45564;SDS011;31280;40.408;17.282;2022-11-20T08:35:17;9.43;;;1.10;;
45564;SDS011;31280;40.408;17.282;2022-11-20T08:37:45;6.30;;;1.42;;
45564;SDS011;31280;40.408;17.282;2022-11-20T08:40:12;9.15;;;1.30;;
45564;SDS011;31280;40.408;17.282;2022-11-20T08:42:45;9.60;;;1.35;;
45564;SDS011;31280;40.408;17.282;2022-11-20T08:45:15;7.15;;;1.30;;
45564;SDS011;31280;40.408;17.282;2022-11-20T08:47:42;6.30;;;1.60;;
45564;SDS011;31280;40.408;17.282;2022-11-20T08:50:09;5.45;;;1.20;;
45564;SDS011;31280;40.408;17.282;2022-11-20T08:52:35;4.43;;;1.00;;
45564;SDS011;31280;40.408;17.282;2022-11-20T08:55:01;9.43;;;1.10;;
45564;SDS011;31280;40.408;17.282;2022-11-20T08:57:27;5.45;;;0.85;;
45564;SDS011;31280;40.408;17.282;2022-11-20T08:59:53;6.60;;;1.05;;
45564;SDS011;31280;40.408;17.282;2022-11-20T09:02:19;7.80;;;1.30;;
45564;SDS011;31280;40.408;17.282;2022-11-20T09:04:45;4.90;;;0.90;;
45564;SDS011;31280;40.408;17.282;2022-11-20T09:07:11;4.80;;;0.95;;
45564;SDS011;31280;40.408;17.282;2022-11-20T09:09:37;5.10;;;1.55;;
45564;SDS011;31280;40.408;17.282;2022-11-20T09:12:03;5.93;;;1.20;;
45564;SDS011;31280;40.408;17.282;2022-11-20T09:14:29;8.43;;;1.15;;
45564;SDS011;31280;40.408;17.282;2022-11-20T09:16:55;8.77;;;1.42;;
45564;SDS011;31280;40.408;17.282;2022-11-20T09:19:23;9.18;;;1.40;;
45564;SDS011;31280;40.408;17.282;2022-11-20T09:21:49;3.15;;;1.17;;
45564;SDS011;31280;40.408;17.282;2022-11-20T09:24:15;5.65;;;1.98;;
45564;SDS011;31280;40.408;17.282;2022-11-20T09:26:41;5.28;;;1.20;;
45564;SDS011;31280;40.408;17.282;2022-11-20T09:29:07;3.08;;;0.95;;
45564;SDS011;31280;40.408;17.282;2022-11-20T09:31:32;6.38;;;1.55;;
45564;SDS011;31280;40.408;17.282;2022-11-20T09:33:58;3.33;;;1.23;;
45564;SDS011;31280;40.408;17.282;2022-11-20T09:36:24;9.55;;;1.50;;
45564;SDS011;31280;40.408;17.282;2022-11-20T09:38:50;9.73;;;1.10;;
45564;SDS011;31280;40.408;17.282;2022-11-20T09:44:33;4.38;;;1.25;;
45564;SDS011;31280;40.408;17.282;2022-11-20T09:49:20;7.07;;;1.13;;
45564;SDS011;31280;40.408;17.282;2022-11-20T09:52:09;6.07;;;1.40;;
45564;SDS011;31280;40.408;17.282;2022-11-20T09:54:37;3.45;;;1.08;;
45564;SDS011;31280;40.408;17.282;2022-11-20T09:57:17;4.82;;;1.42;;
45564;SDS011;31280;40.408;17.282;2022-11-20T09:59:55;4.18;;;1.27;;
45564;SDS011;31280;40.408;17.282;2022-11-20T10:07:44;3.60;;;1.95;;
45564;SDS011;31280;40.408;17.282;2022-11-20T10:16:10;6.68;;;1.27;;
45564;SDS011;31280;40.408;17.282;2022-11-20T10:24:34;5.00;;;1.20;;
45564;SDS011;31280;40.408;17.282;2022-11-20T10:27:06;9.52;;;2.40;;
45564;SDS011;31280;40.408;17.282;2022-11-20T10:29:34;5.85;;;3.15;;
45564;SDS011;31280;40.408;17.282;2022-11-20T10:32:25;5.72;;;1.98;;
45564;SDS011;31280;40.408;17.282;2022-11-20T10:35:01;6.53;;;2.40;;
45564;SDS011;31280;40.408;17.282;2022-11-20T10:37:34;7.28;;;2.03;;
45564;SDS011;31280;40.408;17.282;2022-11-20T10:43:17;10.00;;;1.45;;
45564;SDS011;31280;40.408;17.282;2022-11-20T10:48:32;3.75;;;1.10;;
45564;SDS011;31280;40.408;17.282;2022-11-20T10:56:42;4.28;;;1.23;;
45564;SDS011;31280;40.408;17.282;2022-11-20T11:01:47;8.55;;;1.80;;
45564;SDS011;31280;40.408;17.282;2022-11-20T11:04:25;9.35;;;1.50;;
45564;SDS011;31280;40.408;17.282;2022-11-20T11:06:55;6.78;;;1.75;;
45564;SDS011;31280;40.408;17.282;2022-11-20T11:09:33;10.50;;;1.60;;
45564;SDS011;31280;40.408;17.282;2022-11-20T11:12:07;6.13;;;1.52;;
45564;SDS011;31280;40.408;17.282;2022-11-20T11:14:44;4.13;;;1.48;;
45564;SDS011;31280;40.408;17.282;2022-11-20T11:20:06;4.93;;;1.10;;
45564;SDS011;31280;40.408;17.282;2022-11-20T11:22:48;4.55;;;1.40;;
45564;SDS011;31280;40.408;17.282;2022-11-20T11:25:55;5.07;;;1.98;;
45564;SDS011;31280;40.408;17.282;2022-11-20T11:28:19;7.80;;;2.50;;
45564;SDS011;31280;40.408;17.282;2022-11-20T11:30:47;7.40;;;2.90;;
45564;SDS011;31280;40.408;17.282;2022-11-20T11:33:19;8.98;;;3.13;;
45564;SDS011;31280;40.408;17.282;2022-11-20T11:35:50;4.85;;;2.83;;
45564;SDS011;31280;40.408;17.282;2022-11-20T11:41:06;15.40;;;3.90;;
45564;SDS011;31280;40.408;17.282;2022-11-20T11:43:38;5.75;;;2.10;;
45564;SDS011;31280;40.408;17.282;2022-11-20T11:46:36;5.13;;;2.40;;
45564;SDS011;31280;40.408;17.282;2022-11-20T11:49:11;5.57;;;2.70;;
45564;SDS011;31280;40.408;17.282;2022-11-20T11:51:45;5.00;;;2.03;;
45564;SDS011;31280;40.408;17.282;2022-11-20T11:54:23;8.88;;;2.25;;
45564;SDS011;31280;40.408;17.282;2022-11-20T11:56:54;7.75;;;2.65;;
45564;SDS011;31280;40.408;17.282;2022-11-20T11:59:37;6.88;;;1.85;;
45564;SDS011;31280;40.408;17.282;2022-11-20T12:02:12;4.40;;;2.72;;
45564;SDS011;31280;40.408;17.282;2022-11-20T12:04:56;4.40;;;2.40;;
45564;SDS011;31280;40.408;17.282;2022-11-20T12:07:30;7.85;;;2.20;;
45564;SDS011;31280;40.408;17.282;2022-11-20T12:10:01;8.32;;;3.22;;
45564;SDS011;31280;40.408;17.282;2022-11-20T12:12:30;6.47;;;2.60;;
45564;SDS011;31280;40.408;17.282;2022-11-20T12:15:13;8.52;;;2.17;;
45564;SDS011;31280;40.408;17.282;2022-11-20T12:17:48;8.15;;;2.42;;
45564;SDS011;31280;40.408;17.282;2022-11-20T12:20:14;4.28;;;2.00;;
45564;SDS011;31280;40.408;17.282;2022-11-20T12:25:37;6.63;;;1.88;;
45564;SDS011;31280;40.408;17.282;2022-11-20T12:30:51;5.13;;;1.70;;
45564;SDS011;31280;40.408;17.282;2022-11-20T12:33:47;6.50;;;1.88;;
45564;SDS011;31280;40.408;17.282;2022-11-20T12:36:40;9.95;;;2.03;;
45564;SDS011;31280;40.408;17.282;2022-11-20T12:39:07;5.38;;;2.03;;
45564;SDS011;31280;40.408;17.282;2022-11-20T12:42:14;8.35;;;1.38;;
45564;SDS011;31280;40.408;17.282;2022-11-20T13:01:49;3.90;;;1.50;;
45564;SDS011;31280;40.408;17.282;2022-11-20T13:07:19;5.85;;;1.40;;
45564;SDS011;31280;40.408;17.282;2022-11-20T13:09:49;3.47;;;1.60;;
45564;SDS011;31280;40.408;17.282;2022-11-20T13:12:22;7.18;;;1.33;;
45564;SDS011;31280;40.408;17.282;2022-11-20T13:20:02;12.57;;;2.85;;
45564;SDS011;31280;40.408;17.282;2022-11-20T13:22:47;5.63;;;2.63;;
45564;SDS011;31280;40.408;17.282;2022-11-20T13:25:28;9.82;;;4.18;;
45564;SDS011;31280;40.408;17.282;2022-11-20T13:27:57;13.38;;;2.67;;
45564;SDS011;31280;40.408;17.282;2022-11-20T13:30:27;9.23;;;1.80;;
45564;SDS011;31280;40.408;17.282;2022-11-20T13:32:54;7.70;;;1.65;;
45564;SDS011;31280;40.408;17.282;2022-11-20T13:35:32;7.10;;;1.40;;
45564;SDS011;31280;40.408;17.282;2022-11-20T13:40:27;5.25;;;1.33;;
45564;SDS011;31280;40.408;17.282;2022-11-20T13:43:01;4.18;;;1.58;;
45564;SDS011;31280;40.408;17.282;2022-11-20T13:45:30;13.82;;;2.20;;
45564;SDS011;31280;40.408;17.282;2022-11-20T13:47:58;7.22;;;2.08;;
45564;SDS011;31280;40.408;17.282;2022-11-20T13:50:39;10.73;;;2.58;;
45564;SDS011;31280;40.408;17.282;2022-11-20T14:01:46;3.88;;;1.70;;
45564;SDS011;31280;40.408;17.282;2022-11-20T14:04:15;7.88;;;2.20;;
45564;SDS011;31280;40.408;17.282;2022-11-20T14:06:45;8.63;;;2.53;;
45564;SDS011;31280;40.408;17.282;2022-11-20T14:09:25;11.75;;;3.17;;
45564;SDS011;31280;40.408;17.282;2022-11-20T14:11:52;12.73;;;2.20;;
45564;SDS011;31280;40.408;17.282;2022-11-20T14:14:30;7.80;;;2.80;;
45564;SDS011;31280;40.408;17.282;2022-11-20T14:20:06;4.88;;;2.17;;
45564;SDS011;31280;40.408;17.282;2022-11-20T14:22:38;4.40;;;1.63;;
45564;SDS011;31280;40.408;17.282;2022-11-20T14:27:43;4.88;;;1.00;;
45564;SDS011;31280;40.408;17.282;2022-11-20T14:30:16;4.60;;;1.10;;
45564;SDS011;31280;40.408;17.282;2022-11-20T14:32:46;8.00;;;1.73;;
45564;SDS011;31280;40.408;17.282;2022-11-20T14:35:23;4.72;;;1.30;;
45564;SDS011;31280;40.408;17.282;2022-11-20T14:37:52;2.95;;;1.00;;
45564;SDS011;31280;40.408;17.282;2022-11-20T14:42:49;3.35;;;0.98;;
45564;SDS011;31280;40.408;17.282;2022-11-20T14:45:15;4.63;;;1.10;;
45564;SDS011;31280;40.408;17.282;2022-11-20T14:47:41;5.55;;;1.20;;
45564;SDS011;31280;40.408;17.282;2022-11-20T14:50:12;5.03;;;1.02;;
45564;SDS011;31280;40.408;17.282;2022-11-20T14:52:53;1.33;;;0.80;;
45564;SDS011;31280;40.408;17.282;2022-11-20T14:55:37;2.47;;;0.95;;
45564;SDS011;31280;40.408;17.282;2022-11-20T14:58:23;2.38;;;0.77;;
45564;SDS011;31280;40.408;17.282;2022-11-20T15:00:58;3.33;;;1.10;;
45564;SDS011;31280;40.408;17.282;2022-11-20T15:03:38;4.13;;;2.72;;
45564;SDS011;31280;40.408;17.282;2022-11-20T15:06:05;4.40;;;1.63;;
45564;SDS011;31280;40.408;17.282;2022-11-20T15:08:33;4.63;;;1.20;;
45564;SDS011;31280;40.408;17.282;2022-11-20T15:10:59;3.17;;;1.38;;
45564;SDS011;31280;40.408;17.282;2022-11-20T15:15:59;2.92;;;1.95;;
45564;SDS011;31280;40.408;17.282;2022-11-20T15:18:36;7.22;;;2.22;;
45564;SDS011;31280;40.408;17.282;2022-11-20T15:21:06;2.83;;;1.65;;
45564;SDS011;31280;40.408;17.282;2022-11-20T15:23:38;3.53;;;1.48;;
45564;SDS011;31280;40.408;17.282;2022-11-20T15:26:04;3.63;;;1.50;;
45564;SDS011;31280;40.408;17.282;2022-11-20T15:31:02;2.95;;;1.35;;
45564;SDS011;31280;40.408;17.282;2022-11-20T15:33:29;2.60;;;0.80;;
45564;SDS011;31280;40.408;17.282;2022-11-20T15:35:56;2.35;;;0.80;;
45564;SDS011;31280;40.408;17.282;2022-11-20T15:38:22;2.13;;;0.80;;
45564;SDS011;31280;40.408;17.282;2022-11-20T15:40:49;1.52;;;0.80;;
45564;SDS011;31280;40.408;17.282;2022-11-20T15:43:15;3.15;;;1.00;;
45564;SDS011;31280;40.408;17.282;2022-11-20T15:45:44;3.38;;;0.85;;
45564;SDS011;31280;40.408;17.282;2022-11-20T15:48:15;2.65;;;1.23;;
45564;SDS011;31280;40.408;17.282;2022-11-20T15:50:49;8.63;;;3.67;;
45564;SDS011;31280;40.408;17.282;2022-11-20T15:53:24;25.30;;;10.05;;
45564;SDS011;31280;40.408;17.282;2022-11-20T15:55:50;37.70;;;16.50;;
45564;SDS011;31280;40.408;17.282;2022-11-20T15:58:16;34.75;;;14.52;;
45564;SDS011;31280;40.408;17.282;2022-11-20T16:00:42;27.98;;;12.88;;
45564;SDS011;31280;40.408;17.282;2022-11-20T16:03:11;14.68;;;5.90;;
45564;SDS011;31280;40.408;17.282;2022-11-20T16:05:38;3.97;;;1.95;;
45564;SDS011;31280;40.408;17.282;2022-11-20T16:08:03;4.60;;;1.42;;
45564;SDS011;31280;40.408;17.282;2022-11-20T16:10:30;2.13;;;1.13;;
45564;SDS011;31280;40.408;17.282;2022-11-20T16:12:55;6.03;;;1.50;;
45564;SDS011;31280;40.408;17.282;2022-11-20T16:15:40;4.03;;;1.02;;
45564;SDS011;31280;40.408;17.282;2022-11-20T16:18:16;1.73;;;1.00;;
45564;SDS011;31280;40.408;17.282;2022-11-20T16:20:43;4.13;;;1.27;;
45564;SDS011;31280;40.408;17.282;2022-11-20T16:23:14;4.28;;;0.90;;
45564;SDS011;31280;40.408;17.282;2022-11-20T16:25:41;3.55;;;1.13;;
45564;SDS011;31280;40.408;17.282;2022-11-20T16:28:07;3.70;;;1.20;;